createdAt,value
2022-08-16T00:02:57.316Z,20.35
2022-08-16T00:06:59.948Z,19.40
2022-08-16T00:11:03.008Z,19.38
2022-08-16T00:15:11.528Z,25.30
2022-08-16T00:19:23.637Z,19.08
2022-08-16T00:23:34.455Z,21.27
2022-08-16T00:27:43.464Z,19.20
2022-08-16T00:32:00.786Z,20.65
2022-08-16T00:36:07.959Z,21.33
2022-08-16T00:40:34.386Z,22.88
2022-08-16T00:44:38.225Z,20.63
2022-08-16T00:48:45.447Z,18.35
2022-08-16T00:52:50.909Z,19.77
2022-08-16T00:56:58.053Z,18.45
2022-08-16T01:01:02.821Z,19.48
2022-08-16T01:05:11.724Z,23.02
2022-08-16T01:09:14.834Z,17.85
2022-08-16T01:13:26.550Z,19.20
2022-08-16T01:17:36.912Z,17.88
2022-08-16T01:21:51.730Z,23.42
2022-08-16T01:25:59.912Z,18.55
2022-08-16T01:30:26.292Z,21.33
2022-08-16T01:34:31.594Z,17.40
2022-08-16T01:38:53.198Z,18.48
2022-08-16T01:43:01.694Z,20.70
2022-08-16T01:47:04.914Z,18.80
2022-08-16T01:51:09.391Z,23.67
2022-08-16T01:55:18.915Z,18.05
2022-08-16T01:59:24.187Z,18.38
2022-08-16T02:03:26.668Z,21.13
2022-08-16T02:07:30.641Z,16.00
2022-08-16T02:11:48.536Z,19.05
2022-08-16T02:15:55.318Z,17.88
2022-08-16T02:20:00.391Z,21.30
2022-08-16T02:24:04.196Z,24.58
2022-08-16T02:28:26.389Z,18.27
2022-08-16T02:32:49.017Z,21.10
2022-08-16T02:36:53.385Z,19.08
2022-08-16T02:41:00.739Z,24.02
2022-08-16T02:45:06.661Z,17.88
2022-08-16T02:49:13.495Z,21.80
2022-08-16T02:53:23.703Z,19.60
2022-08-16T02:57:27.230Z,19.90
2022-08-16T03:01:37.049Z,23.35
2022-08-16T03:05:50.045Z,15.05
2022-08-16T03:14:07.663Z,17.38
2022-08-16T03:18:12.528Z,28.13
2022-08-16T03:22:27.932Z,17.38
2022-08-16T03:26:32.698Z,20.58
2022-08-16T03:30:37.024Z,15.75
2022-08-16T03:34:41.932Z,22.40
2022-08-16T03:38:54.487Z,26.23
2022-08-16T03:43:18.917Z,27.52
2022-08-16T03:47:23.203Z,19.63
2022-08-16T03:51:28.923Z,20.33
2022-08-16T03:55:45.364Z,17.52
2022-08-16T03:59:51.002Z,19.70
2022-08-16T04:03:55.210Z,20.90
2022-08-16T04:07:58.678Z,23.10
2022-08-16T04:12:02.955Z,18.85
2022-08-16T04:16:06.471Z,23.85
2022-08-16T04:20:29.483Z,22.52
2022-08-16T04:24:38.327Z,32.10
2022-08-16T04:28:53.427Z,23.88
2022-08-16T04:33:00.579Z,23.77
2022-08-16T04:37:07.189Z,24.98
2022-08-16T04:41:14.084Z,19.73
2022-08-16T04:45:18.504Z,17.27
2022-08-16T04:49:46.236Z,17.80
2022-08-16T04:53:52.653Z,27.48
2022-08-16T04:57:57.548Z,22.33
2022-08-16T05:02:01.042Z,16.13
2022-08-16T05:06:05.213Z,21.17
2022-08-16T05:10:19.947Z,20.25
2022-08-16T05:14:45.429Z,24.25
2022-08-16T05:18:53.982Z,25.55
2022-08-16T05:27:11.116Z,22.27
2022-08-16T05:31:16.695Z,21.60
2022-08-16T05:35:19.521Z,20.63
2022-08-16T05:39:47.475Z,18.88
2022-08-16T05:43:52.737Z,17.42
2022-08-16T05:48:13.032Z,19.65
2022-08-16T05:52:31.622Z,15.38
2022-08-16T05:56:38.444Z,17.92
2022-08-16T06:00:42.303Z,15.43
2022-08-16T06:04:45.026Z,15.52
2022-08-16T06:08:51.997Z,17.30
2022-08-16T06:12:55.975Z,19.10
2022-08-16T06:16:59.259Z,22.10
2022-08-16T06:21:10.058Z,18.13
2022-08-16T06:25:15.209Z,23.55
2022-08-16T06:29:17.675Z,18.48
2022-08-16T06:33:22.775Z,15.45
2022-08-16T06:37:26.984Z,15.43
2022-08-16T06:41:44.745Z,15.80
2022-08-16T06:46:37.071Z,15.50
2022-08-16T06:50:48.295Z,14.60
2022-08-16T06:54:51.164Z,14.48
2022-08-16T06:58:55.020Z,21.33
2022-08-16T07:03:01.524Z,12.98
2022-08-16T07:07:24.298Z,20.40
2022-08-16T07:11:48.238Z,16.42
2022-08-16T07:16:04.420Z,22.05
2022-08-16T07:20:35.158Z,17.83
2022-08-16T07:24:32.545Z,12.95
2022-08-16T07:28:48.157Z,14.02
2022-08-16T07:32:53.793Z,12.55
2022-08-16T07:36:57.995Z,17.48
2022-08-16T07:41:10.942Z,15.45
2022-08-16T07:45:19.417Z,19.20
2022-08-16T07:49:26.220Z,15.68
2022-08-16T07:53:43.704Z,21.70
2022-08-16T07:57:59.708Z,17.58
2022-08-16T08:02:06.833Z,15.03
2022-08-16T08:06:24.907Z,12.70
2022-08-16T08:10:29.409Z,15.88
2022-08-16T08:14:35.106Z,11.65
2022-08-16T08:18:37.276Z,11.85
2022-08-16T08:22:43.314Z,16.63
2022-08-16T08:26:50.288Z,11.85
2022-08-16T08:31:00.700Z,15.80
2022-08-16T08:35:07.746Z,14.57
2022-08-16T08:39:13.400Z,17.60
2022-08-16T08:43:18.433Z,16.30
2022-08-16T08:47:27.835Z,15.10
2022-08-16T08:51:35.790Z,15.77
2022-08-16T08:55:39.473Z,13.35
2022-08-16T08:59:41.722Z,12.93
2022-08-16T09:03:48.967Z,14.65
2022-08-16T09:08:00.386Z,14.18
2022-08-16T09:12:35.569Z,14.50
2022-08-16T09:17:03.407Z,13.25
2022-08-16T09:21:09.500Z,18.40
2022-08-16T09:25:14.602Z,19.00
2022-08-16T09:29:24.187Z,17.02
2022-08-16T09:33:42.141Z,11.05
2022-08-16T09:37:44.495Z,13.77
2022-08-16T09:42:03.364Z,16.33
2022-08-16T09:46:44.772Z,18.20
2022-08-16T09:50:37.269Z,11.20
2022-08-16T09:54:44.448Z,11.13
2022-08-16T09:59:03.646Z,14.82
2022-08-16T10:03:09.172Z,15.35
2022-08-16T10:07:15.836Z,11.32
2022-08-16T10:11:49.984Z,13.13
2022-08-16T10:16:00.219Z,16.17
2022-08-16T10:20:02.613Z,10.05
2022-08-16T10:24:08.907Z,15.10
2022-08-16T10:28:28.571Z,15.50
2022-08-16T10:32:35.083Z,11.75
2022-08-16T10:36:39.237Z,11.13
2022-08-16T10:40:45.487Z,10.15
2022-08-16T10:44:54.779Z,17.52
2022-08-16T10:48:57.212Z,14.07
2022-08-16T10:53:04.908Z,16.98
2022-08-16T10:57:12.052Z,16.45
2022-08-16T11:01:39.824Z,13.45
2022-08-16T11:14:25.852Z,15.90
2022-08-16T11:19:03.237Z,14.45
2022-08-16T11:22:52.070Z,12.48
2022-08-16T11:31:17.859Z,19.50
2022-08-16T11:39:47.006Z,13.75
2022-08-16T11:43:58.006Z,14.88
2022-08-16T11:48:00.490Z,16.55
2022-08-16T11:52:02.860Z,13.80
2022-08-16T11:56:06.310Z,15.02
2022-08-16T12:00:33.984Z,13.45
2022-08-16T12:04:39.693Z,14.50
2022-08-16T12:08:46.270Z,13.07
2022-08-16T12:13:02.828Z,17.02
2022-08-16T12:17:20.890Z,17.10
2022-08-16T12:21:24.250Z,14.93
2022-08-16T12:25:28.866Z,13.27
2022-08-16T12:29:32.265Z,15.13
2022-08-16T12:33:44.654Z,15.43
2022-08-16T12:37:48.877Z,19.70
2022-08-16T12:46:42.727Z,13.10
2022-08-16T12:51:59.000Z,13.88
2022-08-16T13:01:57.969Z,14.65
2022-08-16T13:10:21.097Z,17.48
2022-08-16T13:14:56.053Z,9.18
2022-08-16T13:18:58.356Z,10.32
2022-08-16T13:23:03.564Z,11.02
2022-08-16T13:27:06.630Z,12.23
2022-08-16T13:31:08.665Z,14.60
2022-08-16T13:35:11.664Z,11.05
2022-08-16T13:39:14.138Z,13.93
2022-08-16T13:43:17.151Z,15.00
2022-08-16T13:47:19.500Z,18.05
2022-08-16T13:51:29.289Z,14.90
2022-08-16T13:55:33.357Z,13.25
2022-08-16T13:59:35.664Z,16.73
2022-08-16T14:03:40.807Z,9.25
2022-08-16T14:07:43.065Z,11.85
2022-08-16T14:11:53.406Z,10.05
2022-08-16T14:15:56.002Z,12.25
2022-08-16T14:19:59.781Z,14.38
2022-08-16T14:24:12.918Z,15.02
2022-08-16T14:28:26.068Z,12.18
2022-08-16T14:32:33.274Z,11.45
2022-08-16T14:36:36.844Z,12.40
2022-08-16T14:40:43.654Z,10.60
2022-08-16T14:44:50.414Z,11.30
2022-08-16T14:48:53.375Z,15.15
2022-08-16T14:53:07.764Z,16.27
2022-08-16T14:57:10.240Z,15.48
2022-08-16T15:01:12.753Z,16.77
2022-08-16T15:05:15.483Z,13.05
2022-08-16T15:09:18.411Z,12.90
2022-08-16T15:13:21.730Z,12.10
2022-08-16T15:17:34.038Z,16.52
2022-08-16T15:21:39.891Z,18.73
2022-08-16T15:25:47.122Z,18.52
2022-08-16T15:30:01.894Z,16.67
2022-08-16T15:34:26.390Z,13.20
2022-08-16T15:38:57.435Z,16.48
2022-08-16T15:42:55.006Z,13.93
2022-08-16T15:47:02.761Z,14.20
2022-08-16T15:51:08.304Z,16.23
2022-08-16T15:55:23.489Z,14.68
2022-08-16T15:59:34.867Z,20.67
2022-08-16T16:03:51.830Z,14.02
2022-08-16T16:07:56.320Z,10.95
2022-08-16T16:11:59.568Z,13.82
2022-08-16T16:16:03.471Z,11.30
2022-08-16T16:20:14.584Z,13.35
2022-08-16T16:32:49.983Z,13.38
2022-08-16T16:36:52.367Z,13.90
2022-08-16T16:41:02.303Z,11.15
2022-08-16T16:45:08.037Z,14.50
2022-08-16T16:49:14.706Z,14.00
2022-08-16T16:53:18.149Z,14.50
2022-08-16T16:57:43.596Z,14.40
2022-08-16T17:02:00.377Z,21.98
2022-08-16T17:06:14.354Z,15.23
2022-08-16T17:10:45.572Z,16.27
2022-08-16T17:14:42.660Z,15.10
2022-08-16T17:19:15.269Z,14.68
2022-08-16T17:23:07.480Z,16.83
2022-08-16T17:27:11.632Z,14.18
2022-08-16T17:31:20.075Z,19.10
2022-08-16T17:35:55.625Z,12.70
2022-08-16T17:40:00.743Z,13.90
2022-08-16T17:44:10.699Z,23.27
2022-08-16T17:48:13.189Z,17.73
2022-08-16T17:52:15.734Z,14.32
2022-08-16T17:56:17.798Z,14.73
2022-08-16T18:00:21.832Z,16.58
2022-08-16T18:04:48.384Z,19.48
2022-08-16T18:08:48.865Z,19.77
2022-08-16T18:12:55.988Z,36.05
2022-08-16T18:16:58.444Z,52.22
2022-08-16T18:21:18.983Z,50.65
2022-08-16T18:25:21.471Z,53.17
2022-08-16T18:29:23.540Z,54.42
2022-08-16T18:33:27.471Z,32.10
2022-08-16T18:37:29.632Z,25.77
2022-08-16T18:41:38.231Z,20.42
2022-08-16T18:45:43.422Z,22.08
2022-08-16T18:49:45.798Z,17.40
2022-08-16T18:53:47.925Z,16.77
2022-08-16T18:57:51.045Z,19.38
2022-08-16T19:01:53.438Z,20.52
2022-08-16T19:06:06.567Z,16.15
2022-08-16T19:10:12.652Z,19.05
2022-08-16T19:14:14.949Z,14.60
2022-08-16T19:18:17.026Z,14.98
2022-08-16T19:22:52.094Z,16.45
2022-08-16T19:26:53.017Z,18.83
2022-08-16T19:30:55.605Z,18.88
2022-08-16T19:34:59.967Z,18.05
2022-08-16T19:39:06.619Z,24.27
2022-08-16T19:43:10.776Z,25.50
2022-08-16T19:47:13.567Z,19.55
2022-08-16T19:51:16.715Z,23.38
2022-08-16T19:55:22.422Z,22.17
2022-08-16T19:59:39.984Z,18.75
2022-08-16T20:03:42.984Z,20.73
2022-08-16T20:07:45.650Z,21.73
2022-08-16T20:11:49.707Z,18.38
2022-08-16T20:15:51.924Z,17.80
2022-08-16T20:19:54.604Z,19.38
2022-08-16T20:24:15.763Z,22.15
2022-08-16T20:28:40.106Z,23.55
2022-08-16T20:32:43.503Z,21.60
2022-08-16T20:36:45.824Z,20.70
2022-08-16T20:40:48.250Z,23.30
2022-08-16T20:44:54.140Z,21.08
2022-08-16T20:48:56.293Z,27.52
2022-08-16T20:52:58.978Z,20.08
2022-08-16T20:57:01.226Z,19.67
2022-08-16T21:01:05.744Z,19.85
2022-08-16T21:05:09.828Z,21.40
2022-08-16T21:09:12.135Z,17.92
2022-08-16T21:13:14.101Z,21.42
2022-08-16T21:17:17.226Z,21.38
2022-08-16T21:21:19.213Z,17.73
2022-08-16T21:25:26.667Z,19.42
2022-08-16T21:29:39.882Z,20.13
2022-08-16T21:33:55.110Z,21.80
2022-08-16T21:38:03.118Z,21.40
2022-08-16T21:42:20.306Z,27.10
2022-08-16T21:46:22.236Z,23.85
2022-08-16T21:50:24.489Z,20.80
2022-08-16T21:54:26.632Z,20.17
2022-08-16T21:58:30.092Z,26.25
2022-08-16T22:02:35.784Z,19.73
2022-08-16T22:06:41.410Z,19.20
2022-08-16T22:11:07.283Z,20.63
2022-08-16T22:15:07.130Z,19.73
2022-08-16T22:19:11.819Z,20.55
2022-08-16T22:23:26.166Z,22.30
2022-08-16T22:27:28.788Z,18.40
2022-08-16T22:31:31.330Z,23.77
2022-08-16T22:35:33.658Z,18.33
2022-08-16T22:39:37.241Z,21.20
2022-08-16T22:43:39.910Z,22.30
2022-08-16T22:47:42.639Z,19.38
2022-08-16T22:51:44.664Z,21.50
2022-08-16T22:55:47.125Z,23.80
2022-08-16T22:59:49.196Z,30.50
2022-08-16T23:03:56.107Z,21.85
2022-08-16T23:07:58.218Z,24.83
2022-08-16T23:12:06.316Z,25.08
2022-08-16T23:16:11.009Z,26.95
2022-08-16T23:20:14.018Z,22.65
2022-08-16T23:24:20.605Z,25.65
2022-08-16T23:28:29.524Z,24.02
2022-08-16T23:32:31.580Z,31.20
2022-08-16T23:36:34.576Z,25.25
2022-08-16T23:40:38.508Z,22.35
2022-08-16T23:44:55.431Z,24.23
2022-08-16T23:49:58.989Z,26.65
2022-08-16T23:53:33.420Z,28.63
2022-08-16T23:57:35.564Z,21.85
